sensor_id;sensor_type;location;lat;lon;timestamp;P1;durP1;ratioP1;P2;durP2;ratioP2
7985;SDS011;4038;42.612;23.066;2022-08-04T00:02:09;25.95;;;24.00;;
7985;SDS011;4038;42.612;23.066;2022-08-04T00:04:43;25.83;;;23.90;;
7985;SDS011;4038;42.612;23.066;2022-08-04T00:10:20;25.20;;;23.35;;
7985;SDS011;4038;42.612;23.066;2022-08-04T00:12:47;25.70;;;23.98;;
7985;SDS011;4038;42.612;23.066;2022-08-04T00:15:15;25.42;;;23.73;;
7985;SDS011;4038;42.612;23.066;2022-08-04T00:17:51;26.65;;;24.45;;
7985;SDS011;4038;42.612;23.066;2022-08-04T00:20:22;26.55;;;24.75;;
7985;SDS011;4038;42.612;23.066;2022-08-04T00:22:53;26.80;;;24.90;;
7985;SDS011;4038;42.612;23.066;2022-08-04T00:25:18;26.23;;;24.42;;
7985;SDS011;4038;42.612;23.066;2022-08-04T00:27:44;26.50;;;24.60;;
7985;SDS011;4038;42.612;23.066;2022-08-04T00:30:11;26.60;;;24.70;;
7985;SDS011;4038;42.612;23.066;2022-08-04T00:32:38;26.70;;;24.92;;
7985;SDS011;4038;42.612;23.066;2022-08-04T00:35:05;26.48;;;24.65;;
7985;SDS011;4038;42.612;23.066;2022-08-04T00:37:33;32.65;;;27.83;;
7985;SDS011;4038;42.612;23.066;2022-08-04T00:40:01;26.85;;;24.95;;
7985;SDS011;4038;42.612;23.066;2022-08-04T00:42:41;27.63;;;25.45;;
7985;SDS011;4038;42.612;23.066;2022-08-04T00:53:51;25.77;;;23.92;;
7985;SDS011;4038;42.612;23.066;2022-08-04T00:59:19;25.73;;;23.92;;
7985;SDS011;4038;42.612;23.066;2022-08-04T01:04:57;26.25;;;24.40;;
7985;SDS011;4038;42.612;23.066;2022-08-04T01:18:11;25.50;;;23.70;;
7985;SDS011;4038;42.612;23.066;2022-08-04T01:20:49;25.75;;;24.05;;
7985;SDS011;4038;42.612;23.066;2022-08-04T01:29:13;25.77;;;23.95;;
7985;SDS011;4038;42.612;23.066;2022-08-04T01:31:47;26.25;;;24.45;;
7985;SDS011;4038;42.612;23.066;2022-08-04T01:34:21;25.65;;;23.75;;
7985;SDS011;4038;42.612;23.066;2022-08-04T01:37:31;25.98;;;24.23;;
7985;SDS011;4038;42.612;23.066;2022-08-04T01:40:03;26.95;;;24.75;;
7985;SDS011;4038;42.612;23.066;2022-08-04T01:42:31;27.05;;;24.58;;
7985;SDS011;4038;42.612;23.066;2022-08-04T01:45:02;25.92;;;24.02;;
7985;SDS011;4038;42.612;23.066;2022-08-04T01:47:29;26.25;;;24.17;;
7985;SDS011;4038;42.612;23.066;2022-08-04T01:50:01;25.52;;;23.45;;
7985;SDS011;4038;42.612;23.066;2022-08-04T01:52:30;25.52;;;23.80;;
7985;SDS011;4038;42.612;23.066;2022-08-04T01:54:57;25.35;;;23.60;;
7985;SDS011;4038;42.612;23.066;2022-08-04T01:57:27;25.77;;;23.67;;
7985;SDS011;4038;42.612;23.066;2022-08-04T01:59:53;26.05;;;24.33;;
7985;SDS011;4038;42.612;23.066;2022-08-04T02:02:23;25.95;;;23.83;;
7985;SDS011;4038;42.612;23.066;2022-08-04T02:04:49;26.23;;;24.13;;
7985;SDS011;4038;42.612;23.066;2022-08-04T02:16:04;25.02;;;23.33;;
7985;SDS011;4038;42.612;23.066;2022-08-04T02:21:26;24.15;;;22.50;;
7985;SDS011;4038;42.612;23.066;2022-08-04T02:23:56;24.50;;;22.70;;
7985;SDS011;4038;42.612;23.066;2022-08-04T02:26:27;25.42;;;23.40;;
7985;SDS011;4038;42.612;23.066;2022-08-04T02:31:51;25.00;;;23.13;;
7985;SDS011;4038;42.612;23.066;2022-08-04T02:36:47;24.85;;;23.15;;
7985;SDS011;4038;42.612;23.066;2022-08-04T02:39:16;24.70;;;22.90;;
7985;SDS011;4038;42.612;23.066;2022-08-04T02:41:43;25.27;;;23.48;;
7985;SDS011;4038;42.612;23.066;2022-08-04T02:44:12;24.52;;;22.83;;
7985;SDS011;4038;42.612;23.066;2022-08-04T02:46:38;24.70;;;22.75;;
7985;SDS011;4038;42.612;23.066;2022-08-04T02:49:06;24.17;;;22.42;;
7985;SDS011;4038;42.612;23.066;2022-08-04T02:51:35;24.80;;;22.98;;
7985;SDS011;4038;42.612;23.066;2022-08-04T02:54:04;23.77;;;22.08;;
7985;SDS011;4038;42.612;23.066;2022-08-04T02:56:31;24.58;;;22.90;;
7985;SDS011;4038;42.612;23.066;2022-08-04T02:58:59;25.23;;;23.08;;
7985;SDS011;4038;42.612;23.066;2022-08-04T03:01:27;24.63;;;22.92;;
7985;SDS011;4038;42.612;23.066;2022-08-04T03:43:51;25.67;;;23.70;;
7985;SDS011;4038;42.612;23.066;2022-08-04T03:55:11;25.17;;;22.73;;
7985;SDS011;4038;42.612;23.066;2022-08-04T04:00:24;25.67;;;23.30;;
7985;SDS011;4038;42.612;23.066;2022-08-04T04:10:51;25.58;;;23.55;;
7985;SDS011;4038;42.612;23.066;2022-08-04T04:19:11;24.98;;;23.00;;
7985;SDS011;4038;42.612;23.066;2022-08-04T04:30:26;26.08;;;23.65;;
7985;SDS011;4038;42.612;23.066;2022-08-04T04:46:06;26.17;;;23.90;;
7985;SDS011;4038;42.612;23.066;2022-08-04T04:48:51;26.00;;;23.90;;
7985;SDS011;4038;42.612;23.066;2022-08-04T04:51:36;25.98;;;23.98;;
7985;SDS011;4038;42.612;23.066;2022-08-04T04:54:23;26.88;;;24.17;;
7985;SDS011;4038;42.612;23.066;2022-08-04T04:56:52;27.15;;;23.70;;
7985;SDS011;4038;42.612;23.066;2022-08-04T04:59:30;26.70;;;24.30;;
7985;SDS011;4038;42.612;23.066;2022-08-04T05:05:21;34.45;;;25.55;;
7985;SDS011;4038;42.612;23.066;2022-08-04T05:07:59;37.53;;;25.27;;
7985;SDS011;4038;42.612;23.066;2022-08-04T05:15:45;33.35;;;25.20;;
7985;SDS011;4038;42.612;23.066;2022-08-04T05:18:15;35.80;;;26.15;;
7985;SDS011;4038;42.612;23.066;2022-08-04T05:20:47;35.08;;;26.48;;
7985;SDS011;4038;42.612;23.066;2022-08-04T05:23:24;33.75;;;26.52;;
7985;SDS011;4038;42.612;23.066;2022-08-04T05:28:17;31.98;;;25.35;;
7985;SDS011;4038;42.612;23.066;2022-08-04T05:30:49;29.08;;;25.10;;
7985;SDS011;4038;42.612;23.066;2022-08-04T05:33:20;33.67;;;25.65;;
7985;SDS011;4038;42.612;23.066;2022-08-04T05:35:51;28.58;;;25.20;;
7985;SDS011;4038;42.612;23.066;2022-08-04T05:38:21;35.50;;;26.30;;
7985;SDS011;4038;42.612;23.066;2022-08-04T05:40:50;29.08;;;25.23;;
7985;SDS011;4038;42.612;23.066;2022-08-04T05:43:18;29.05;;;25.17;;
7985;SDS011;4038;42.612;23.066;2022-08-04T05:45:46;29.63;;;26.48;;
7985;SDS011;4038;42.612;23.066;2022-08-04T05:48:13;33.80;;;26.08;;
7985;SDS011;4038;42.612;23.066;2022-08-04T05:50:39;35.58;;;25.30;;
7985;SDS011;4038;42.612;23.066;2022-08-04T05:53:05;35.58;;;25.45;;
7985;SDS011;4038;42.612;23.066;2022-08-04T05:55:33;34.80;;;25.58;;
7985;SDS011;4038;42.612;23.066;2022-08-04T05:57:59;31.60;;;26.35;;
7985;SDS011;4038;42.612;23.066;2022-08-04T06:00:25;29.95;;;26.85;;
7985;SDS011;4038;42.612;23.066;2022-08-04T06:02:52;31.58;;;26.40;;
7985;SDS011;4038;42.612;23.066;2022-08-04T06:05:20;35.28;;;26.38;;
7985;SDS011;4038;42.612;23.066;2022-08-04T06:07:47;28.48;;;25.38;;
7985;SDS011;4038;42.612;23.066;2022-08-04T06:10:12;32.13;;;26.23;;
7985;SDS011;4038;42.612;23.066;2022-08-04T06:15:10;29.35;;;26.15;;
7985;SDS011;4038;42.612;23.066;2022-08-04T06:17:39;33.40;;;27.27;;
7985;SDS011;4038;42.612;23.066;2022-08-04T06:20:10;40.80;;;27.83;;
7985;SDS011;4038;42.612;23.066;2022-08-04T06:22:38;34.85;;;28.13;;
7985;SDS011;4038;42.612;23.066;2022-08-04T06:25:06;31.48;;;26.00;;
7985;SDS011;4038;42.612;23.066;2022-08-04T06:27:35;28.25;;;25.30;;
7985;SDS011;4038;42.612;23.066;2022-08-04T06:30:02;27.80;;;24.98;;
7985;SDS011;4038;42.612;23.066;2022-08-04T06:32:30;28.75;;;26.25;;
7985;SDS011;4038;42.612;23.066;2022-08-04T06:35:03;28.48;;;25.45;;
7985;SDS011;4038;42.612;23.066;2022-08-04T06:37:32;27.77;;;25.17;;
7985;SDS011;4038;42.612;23.066;2022-08-04T06:40:00;31.65;;;25.40;;
7985;SDS011;4038;42.612;23.066;2022-08-04T06:42:27;30.92;;;24.83;;
7985;SDS011;4038;42.612;23.066;2022-08-04T06:44:55;28.13;;;24.83;;
7985;SDS011;4038;42.612;23.066;2022-08-04T06:47:22;26.73;;;24.17;;
7985;SDS011;4038;42.612;23.066;2022-08-04T06:49:50;27.25;;;24.60;;
7985;SDS011;4038;42.612;23.066;2022-08-04T06:52:18;31.00;;;24.63;;
7985;SDS011;4038;42.612;23.066;2022-08-04T06:54:49;30.25;;;23.80;;
7985;SDS011;4038;42.612;23.066;2022-08-04T06:57:20;28.48;;;24.90;;
7985;SDS011;4038;42.612;23.066;2022-08-04T06:59:58;27.92;;;25.10;;
7985;SDS011;4038;42.612;23.066;2022-08-04T07:02:29;29.33;;;24.73;;
7985;SDS011;4038;42.612;23.066;2022-08-04T07:04:57;27.15;;;24.42;;
7985;SDS011;4038;42.612;23.066;2022-08-04T07:07:23;30.63;;;24.48;;
7985;SDS011;4038;42.612;23.066;2022-08-04T07:09:49;30.60;;;24.27;;
7985;SDS011;4038;42.612;23.066;2022-08-04T07:12:15;35.25;;;23.70;;
7985;SDS011;4038;42.612;23.066;2022-08-04T07:14:45;26.80;;;23.98;;
7985;SDS011;4038;42.612;23.066;2022-08-04T07:17:11;28.33;;;24.95;;
7985;SDS011;4038;42.612;23.066;2022-08-04T07:19:40;30.08;;;25.65;;
7985;SDS011;4038;42.612;23.066;2022-08-04T07:22:08;28.45;;;25.42;;
7985;SDS011;4038;42.612;23.066;2022-08-04T07:24:35;28.70;;;25.83;;
7985;SDS011;4038;42.612;23.066;2022-08-04T07:27:02;28.02;;;25.30;;
7985;SDS011;4038;42.612;23.066;2022-08-04T07:29:28;28.25;;;24.90;;
7985;SDS011;4038;42.612;23.066;2022-08-04T07:31:55;26.00;;;23.60;;
7985;SDS011;4038;42.612;23.066;2022-08-04T07:34:21;27.60;;;24.90;;
7985;SDS011;4038;42.612;23.066;2022-08-04T07:36:52;28.77;;;24.17;;
7985;SDS011;4038;42.612;23.066;2022-08-04T07:39:19;27.45;;;24.85;;
7985;SDS011;4038;42.612;23.066;2022-08-04T07:41:46;26.33;;;23.95;;
7985;SDS011;4038;42.612;23.066;2022-08-04T07:44:13;26.65;;;24.10;;
7985;SDS011;4038;42.612;23.066;2022-08-04T07:46:39;26.70;;;24.50;;
7985;SDS011;4038;42.612;23.066;2022-08-04T07:49:05;26.17;;;23.83;;
7985;SDS011;4038;42.612;23.066;2022-08-04T07:51:32;24.65;;;22.63;;
7985;SDS011;4038;42.612;23.066;2022-08-04T07:53:59;26.83;;;24.10;;
7985;SDS011;4038;42.612;23.066;2022-08-04T07:56:28;26.45;;;24.35;;
7985;SDS011;4038;42.612;23.066;2022-08-04T07:58:54;25.80;;;23.83;;
7985;SDS011;4038;42.612;23.066;2022-08-04T08:01:20;24.67;;;22.33;;
7985;SDS011;4038;42.612;23.066;2022-08-04T08:03:47;24.67;;;22.70;;
7985;SDS011;4038;42.612;23.066;2022-08-04T08:06:14;24.45;;;22.42;;
7985;SDS011;4038;42.612;23.066;2022-08-04T08:08:40;24.00;;;22.20;;
7985;SDS011;4038;42.612;23.066;2022-08-04T08:11:05;23.95;;;22.13;;
7985;SDS011;4038;42.612;23.066;2022-08-04T08:13:31;24.05;;;22.02;;
7985;SDS011;4038;42.612;23.066;2022-08-04T08:15:58;24.45;;;22.27;;
7985;SDS011;4038;42.612;23.066;2022-08-04T08:18:24;24.10;;;22.02;;
7985;SDS011;4038;42.612;23.066;2022-08-04T08:20:49;25.52;;;23.00;;
7985;SDS011;4038;42.612;23.066;2022-08-04T08:23:17;24.90;;;22.75;;
7985;SDS011;4038;42.612;23.066;2022-08-04T08:25:43;25.00;;;23.20;;
7985;SDS011;4038;42.612;23.066;2022-08-04T08:28:09;25.20;;;23.10;;
7985;SDS011;4038;42.612;23.066;2022-08-04T08:30:34;25.10;;;23.08;;
7985;SDS011;4038;42.612;23.066;2022-08-04T08:33:01;25.15;;;22.95;;
7985;SDS011;4038;42.612;23.066;2022-08-04T08:35:31;25.90;;;23.75;;
7985;SDS011;4038;42.612;23.066;2022-08-04T08:38:11;25.65;;;23.75;;
7985;SDS011;4038;42.612;23.066;2022-08-04T08:40:47;24.95;;;23.05;;
7985;SDS011;4038;42.612;23.066;2022-08-04T09:17:29;23.70;;;22.20;;
7985;SDS011;4038;42.612;23.066;2022-08-04T09:25:45;25.40;;;23.65;;
7985;SDS011;4038;42.612;23.066;2022-08-04T09:28:20;24.65;;;22.88;;
7985;SDS011;4038;42.612;23.066;2022-08-04T09:30:51;24.80;;;22.88;;
7985;SDS011;4038;42.612;23.066;2022-08-04T09:35:47;25.05;;;23.15;;
7985;SDS011;4038;42.612;23.066;2022-08-04T09:49:42;24.25;;;22.42;;
7985;SDS011;4038;42.612;23.066;2022-08-04T10:00:41;24.40;;;22.60;;
7985;SDS011;4038;42.612;23.066;2022-08-04T10:03:11;24.50;;;22.52;;
7985;SDS011;4038;42.612;23.066;2022-08-04T10:05:41;24.48;;;22.83;;
7985;SDS011;4038;42.612;23.066;2022-08-04T10:08:37;24.40;;;22.60;;
7985;SDS011;4038;42.612;23.066;2022-08-04T10:11:32;24.30;;;22.40;;
7985;SDS011;4038;42.612;23.066;2022-08-04T10:28:45;25.80;;;23.30;;
7985;SDS011;4038;42.612;23.066;2022-08-04T10:31:19;24.13;;;22.35;;
7985;SDS011;4038;42.612;23.066;2022-08-04T10:33:52;24.20;;;22.00;;
7985;SDS011;4038;42.612;23.066;2022-08-04T10:36:26;24.35;;;22.33;;
7985;SDS011;4038;42.612;23.066;2022-08-04T10:39:06;23.58;;;21.88;;
7985;SDS011;4038;42.612;23.066;2022-08-04T10:41:38;23.77;;;21.98;;
7985;SDS011;4038;42.612;23.066;2022-08-04T10:46:49;23.92;;;21.92;;
7985;SDS011;4038;42.612;23.066;2022-08-04T11:00:00;23.30;;;21.63;;
7985;SDS011;4038;42.612;23.066;2022-08-04T11:05:59;23.85;;;22.00;;
7985;SDS011;4038;42.612;23.066;2022-08-04T11:08:10;23.85;;;21.88;;
7985;SDS011;4038;42.612;23.066;2022-08-04T11:10:42;23.73;;;21.83;;
7985;SDS011;4038;42.612;23.066;2022-08-04T11:13:12;24.40;;;22.50;;
7985;SDS011;4038;42.612;23.066;2022-08-04T11:15:45;23.45;;;21.95;;
7985;SDS011;4038;42.612;23.066;2022-08-04T11:18:18;24.67;;;22.77;;
7985;SDS011;4038;42.612;23.066;2022-08-04T11:21:10;24.00;;;22.40;;
7985;SDS011;4038;42.612;23.066;2022-08-04T11:23:43;24.08;;;22.27;;
7985;SDS011;4038;42.612;23.066;2022-08-04T11:26:15;25.52;;;23.15;;
7985;SDS011;4038;42.612;23.066;2022-08-04T11:28:48;24.08;;;22.23;;
7985;SDS011;4038;42.612;23.066;2022-08-04T11:31:24;24.10;;;22.40;;
7985;SDS011;4038;42.612;23.066;2022-08-04T11:42:30;25.13;;;22.95;;
7985;SDS011;4038;42.612;23.066;2022-08-04T11:45:18;24.80;;;23.08;;
7985;SDS011;4038;42.612;23.066;2022-08-04T11:47:56;24.25;;;22.45;;
7985;SDS011;4038;42.612;23.066;2022-08-04T11:50:28;25.58;;;23.70;;
7985;SDS011;4038;42.612;23.066;2022-08-04T11:52:59;25.33;;;23.00;;
7985;SDS011;4038;42.612;23.066;2022-08-04T11:55:26;24.73;;;23.02;;
7985;SDS011;4038;42.612;23.066;2022-08-04T11:57:53;23.95;;;22.15;;
7985;SDS011;4038;42.612;23.066;2022-08-04T12:00:19;25.02;;;23.33;;
7985;SDS011;4038;42.612;23.066;2022-08-04T12:05:46;26.00;;;24.17;;
7985;SDS011;4038;42.612;23.066;2022-08-04T12:08:27;26.20;;;24.40;;
7985;SDS011;4038;42.612;23.066;2022-08-04T12:19:39;25.23;;;23.42;;
7985;SDS011;4038;42.612;23.066;2022-08-04T12:22:16;26.25;;;24.45;;
7985;SDS011;4038;42.612;23.066;2022-08-04T12:24:52;25.55;;;23.65;;
7985;SDS011;4038;42.612;23.066;2022-08-04T12:30:09;25.20;;;23.48;;
7985;SDS011;4038;42.612;23.066;2022-08-04T12:32:37;26.60;;;24.75;;
7985;SDS011;4038;42.612;23.066;2022-08-04T12:37:54;25.48;;;23.77;;
7985;SDS011;4038;42.612;23.066;2022-08-04T12:40:27;25.73;;;24.02;;
7985;SDS011;4038;42.612;23.066;2022-08-04T12:43:02;25.13;;;23.42;;
7985;SDS011;4038;42.612;23.066;2022-08-04T12:45:34;25.00;;;23.30;;
7985;SDS011;4038;42.612;23.066;2022-08-04T12:48:00;26.05;;;24.08;;
7985;SDS011;4038;42.612;23.066;2022-08-04T12:50:30;25.02;;;23.33;;
7985;SDS011;4038;42.612;23.066;2022-08-04T12:52:56;25.50;;;23.80;;
7985;SDS011;4038;42.612;23.066;2022-08-04T12:55:26;24.65;;;22.85;;
7985;SDS011;4038;42.612;23.066;2022-08-04T12:57:54;26.63;;;24.60;;
7985;SDS011;4038;42.612;23.066;2022-08-04T13:00:24;25.10;;;23.30;;
7985;SDS011;4038;42.612;23.066;2022-08-04T13:02:52;24.88;;;23.17;;
7985;SDS011;4038;42.612;23.066;2022-08-04T13:05:18;25.42;;;23.42;;
7985;SDS011;4038;42.612;23.066;2022-08-04T13:07:47;25.00;;;22.92;;
7985;SDS011;4038;42.612;23.066;2022-08-04T13:10:15;27.90;;;26.10;;
7985;SDS011;4038;42.612;23.066;2022-08-04T13:12:50;27.13;;;25.33;;
7985;SDS011;4038;42.612;23.066;2022-08-04T13:15:21;26.70;;;24.80;;
7985;SDS011;4038;42.612;23.066;2022-08-04T13:20:34;26.60;;;24.90;;
7985;SDS011;4038;42.612;23.066;2022-08-04T13:23:05;26.60;;;24.52;;
7985;SDS011;4038;42.612;23.066;2022-08-04T13:25:35;27.10;;;25.15;;
7985;SDS011;4038;42.612;23.066;2022-08-04T13:28:05;26.55;;;24.85;;
7985;SDS011;4038;42.612;23.066;2022-08-04T13:30:36;25.23;;;23.42;;
7985;SDS011;4038;42.612;23.066;2022-08-04T13:33:02;25.30;;;23.30;;
7985;SDS011;4038;42.612;23.066;2022-08-04T13:35:30;24.75;;;22.85;;
7985;SDS011;4038;42.612;23.066;2022-08-04T13:37:58;25.85;;;24.15;;
7985;SDS011;4038;42.612;23.066;2022-08-04T13:40:25;25.67;;;23.90;;
7985;SDS011;4038;42.612;23.066;2022-08-04T13:42:52;24.35;;;22.75;;
7985;SDS011;4038;42.612;23.066;2022-08-04T13:45:23;26.60;;;24.90;;
7985;SDS011;4038;42.612;23.066;2022-08-04T13:47:50;27.55;;;25.75;;
7985;SDS011;4038;42.612;23.066;2022-08-04T13:50:25;26.60;;;24.90;;
7985;SDS011;4038;42.612;23.066;2022-08-04T13:52:53;27.55;;;25.85;;
7985;SDS011;4038;42.612;23.066;2022-08-04T13:55:25;26.80;;;25.20;;
7985;SDS011;4038;42.612;23.066;2022-08-04T13:58:13;26.65;;;24.85;;
7985;SDS011;4038;42.612;23.066;2022-08-04T14:01:09;26.00;;;24.27;;
7985;SDS011;4038;42.612;23.066;2022-08-04T14:03:51;26.35;;;24.65;;
7985;SDS011;4038;42.612;23.066;2022-08-04T14:06:23;26.02;;;24.33;;
7985;SDS011;4038;42.612;23.066;2022-08-04T14:08:53;25.17;;;23.65;;
7985;SDS011;4038;42.612;23.066;2022-08-04T14:11:29;25.05;;;23.35;;
7985;SDS011;4038;42.612;23.066;2022-08-04T14:14:00;27.45;;;25.65;;
7985;SDS011;4038;42.612;23.066;2022-08-04T14:16:36;25.70;;;23.98;;
7985;SDS011;4038;42.612;23.066;2022-08-04T14:19:02;24.85;;;23.35;;
7985;SDS011;4038;42.612;23.066;2022-08-04T14:21:27;25.85;;;24.10;;
7985;SDS011;4038;42.612;23.066;2022-08-04T14:24:00;25.02;;;23.33;;
7985;SDS011;4038;42.612;23.066;2022-08-04T14:26:27;25.73;;;24.02;;
7985;SDS011;4038;42.612;23.066;2022-08-04T14:29:20;27.30;;;25.48;;
7985;SDS011;4038;42.612;23.066;2022-08-04T14:31:46;26.77;;;24.95;;
7985;SDS011;4038;42.612;23.066;2022-08-04T14:34:26;27.42;;;25.52;;
7985;SDS011;4038;42.612;23.066;2022-08-04T14:36:53;25.38;;;23.48;;
7985;SDS011;4038;42.612;23.066;2022-08-04T14:39:34;26.35;;;24.00;;
7985;SDS011;4038;42.612;23.066;2022-08-04T14:42:02;26.15;;;24.17;;
7985;SDS011;4038;42.612;23.066;2022-08-04T14:44:27;25.25;;;23.58;;
7985;SDS011;4038;42.612;23.066;2022-08-04T14:46:54;25.88;;;24.05;;
7985;SDS011;4038;42.612;23.066;2022-08-04T14:49:22;25.40;;;23.60;;
7985;SDS011;4038;42.612;23.066;2022-08-04T14:51:51;25.90;;;23.98;;
7985;SDS011;4038;42.612;23.066;2022-08-04T14:54:26;25.38;;;23.38;;
7985;SDS011;4038;42.612;23.066;2022-08-04T14:57:03;25.92;;;23.80;;
7985;SDS011;4038;42.612;23.066;2022-08-04T14:59:49;26.17;;;24.27;;
7985;SDS011;4038;42.612;23.066;2022-08-04T15:02:15;24.95;;;23.25;;
7985;SDS011;4038;42.612;23.066;2022-08-04T15:04:41;26.30;;;24.50;;
7985;SDS011;4038;42.612;23.066;2022-08-04T15:07:09;26.27;;;24.48;;
7985;SDS011;4038;42.612;23.066;2022-08-04T15:09:35;25.33;;;23.73;;
7985;SDS011;4038;42.612;23.066;2022-08-04T15:12:01;25.83;;;24.13;;
7985;SDS011;4038;42.612;23.066;2022-08-04T15:14:28;25.60;;;23.80;;
7985;SDS011;4038;42.612;23.066;2022-08-04T15:16:54;27.38;;;25.38;;
7985;SDS011;4038;42.612;23.066;2022-08-04T15:19:20;27.08;;;25.17;;
7985;SDS011;4038;42.612;23.066;2022-08-04T15:21:46;25.85;;;23.85;;
7985;SDS011;4038;42.612;23.066;2022-08-04T15:24:12;25.15;;;23.20;;
7985;SDS011;4038;42.612;23.066;2022-08-04T15:26:40;24.83;;;23.13;;
7985;SDS011;4038;42.612;23.066;2022-08-04T15:29:15;26.20;;;24.30;;
7985;SDS011;4038;42.612;23.066;2022-08-04T15:31:44;26.65;;;24.88;;
7985;SDS011;4038;42.612;23.066;2022-08-04T15:34:11;26.77;;;25.08;;
7985;SDS011;4038;42.612;23.066;2022-08-04T15:47:41;25.73;;;24.17;;
7985;SDS011;4038;42.612;23.066;2022-08-04T15:50:11;26.77;;;25.17;;
7985;SDS011;4038;42.612;23.066;2022-08-04T15:58:02;26.15;;;24.27;;
7985;SDS011;4038;42.612;23.066;2022-08-04T16:11:56;27.80;;;26.10;;
7985;SDS011;4038;42.612;23.066;2022-08-04T16:16:28;28.00;;;26.30;;
7985;SDS011;4038;42.612;23.066;2022-08-04T16:19:04;26.85;;;25.05;;
7985;SDS011;4038;42.612;23.066;2022-08-04T16:21:30;28.08;;;26.27;;
7985;SDS011;4038;42.612;23.066;2022-08-04T16:37:12;30.27;;;28.20;;
7985;SDS011;4038;42.612;23.066;2022-08-04T16:39:39;27.67;;;25.83;;
7985;SDS011;4038;42.612;23.066;2022-08-04T16:45:08;26.88;;;24.77;;
7985;SDS011;4038;42.612;23.066;2022-08-04T16:50:20;26.95;;;24.85;;
7985;SDS011;4038;42.612;23.066;2022-08-04T16:52:52;28.05;;;25.92;;
7985;SDS011;4038;42.612;23.066;2022-08-04T16:55:26;28.83;;;26.83;;
7985;SDS011;4038;42.612;23.066;2022-08-04T16:57:54;25.42;;;23.35;;
7985;SDS011;4038;42.612;23.066;2022-08-04T17:00:54;27.50;;;25.50;;
7985;SDS011;4038;42.612;23.066;2022-08-04T17:03:13;24.98;;;23.00;;
7985;SDS011;4038;42.612;23.066;2022-08-04T17:05:39;25.73;;;23.70;;
7985;SDS011;4038;42.612;23.066;2022-08-04T17:08:06;26.83;;;24.85;;
7985;SDS011;4038;42.612;23.066;2022-08-04T17:10:40;26.20;;;24.40;;
7985;SDS011;4038;42.612;23.066;2022-08-04T17:15:47;24.95;;;23.08;;
7985;SDS011;4038;42.612;23.066;2022-08-04T17:18:17;27.45;;;24.92;;
7985;SDS011;4038;42.612;23.066;2022-08-04T17:20:45;28.25;;;26.25;;
7985;SDS011;4038;42.612;23.066;2022-08-04T17:25:57;27.05;;;24.98;;
7985;SDS011;4038;42.612;23.066;2022-08-04T17:28:28;25.65;;;23.60;;
7985;SDS011;4038;42.612;23.066;2022-08-04T17:30:54;26.33;;;24.42;;
7985;SDS011;4038;42.612;23.066;2022-08-04T17:33:22;24.60;;;22.73;;
7985;SDS011;4038;42.612;23.066;2022-08-04T17:35:49;26.42;;;24.42;;
7985;SDS011;4038;42.612;23.066;2022-08-04T17:38:15;27.50;;;25.33;;
7985;SDS011;4038;42.612;23.066;2022-08-04T17:40:50;28.63;;;26.60;;
7985;SDS011;4038;42.612;23.066;2022-08-04T17:43:17;25.58;;;23.67;;
7985;SDS011;4038;42.612;23.066;2022-08-04T17:45:43;25.35;;;23.55;;
7985;SDS011;4038;42.612;23.066;2022-08-04T17:48:16;25.45;;;23.75;;
7985;SDS011;4038;42.612;23.066;2022-08-04T17:50:42;26.38;;;24.58;;
7985;SDS011;4038;42.612;23.066;2022-08-04T17:53:08;25.50;;;23.90;;
7985;SDS011;4038;42.612;23.066;2022-08-04T17:55:37;25.58;;;23.75;;
7985;SDS011;4038;42.612;23.066;2022-08-04T18:01:00;24.50;;;22.83;;
7985;SDS011;4038;42.612;23.066;2022-08-04T18:03:26;24.85;;;23.10;;
7985;SDS011;4038;42.612;23.066;2022-08-04T18:05:52;25.80;;;23.90;;
7985;SDS011;4038;42.612;23.066;2022-08-04T18:08:25;25.85;;;23.95;;
7985;SDS011;4038;42.612;23.066;2022-08-04T18:10:51;26.83;;;24.80;;
7985;SDS011;4038;42.612;23.066;2022-08-04T18:13:17;25.33;;;23.60;;
7985;SDS011;4038;42.612;23.066;2022-08-04T18:15:43;25.27;;;23.45;;
7985;SDS011;4038;42.612;23.066;2022-08-04T18:18:19;25.92;;;24.20;;
7985;SDS011;4038;42.612;23.066;2022-08-04T18:20:46;27.30;;;25.38;;
7985;SDS011;4038;42.612;23.066;2022-08-04T18:23:12;29.17;;;27.17;;
7985;SDS011;4038;42.612;23.066;2022-08-04T18:25:38;24.98;;;23.05;;
7985;SDS011;4038;42.612;23.066;2022-08-04T18:28:10;25.90;;;23.85;;
7985;SDS011;4038;42.612;23.066;2022-08-04T18:30:37;25.77;;;24.00;;
7985;SDS011;4038;42.612;23.066;2022-08-04T18:33:03;26.13;;;24.42;;
7985;SDS011;4038;42.612;23.066;2022-08-04T18:35:29;27.73;;;25.77;;
7985;SDS011;4038;42.612;23.066;2022-08-04T18:37:58;28.10;;;25.63;;
7985;SDS011;4038;42.612;23.066;2022-08-04T18:40:24;34.90;;;32.28;;
7985;SDS011;4038;42.612;23.066;2022-08-04T18:42:49;31.45;;;28.40;;
7985;SDS011;4038;42.612;23.066;2022-08-04T18:45:15;30.02;;;27.05;;
7985;SDS011;4038;42.612;23.066;2022-08-04T18:47:40;30.13;;;27.92;;
7985;SDS011;4038;42.612;23.066;2022-08-04T18:50:06;31.92;;;29.55;;
7985;SDS011;4038;42.612;23.066;2022-08-04T18:52:32;26.73;;;24.92;;
7985;SDS011;4038;42.612;23.066;2022-08-04T18:55:00;30.70;;;28.35;;
7985;SDS011;4038;42.612;23.066;2022-08-04T18:57:28;29.05;;;26.75;;
7985;SDS011;4038;42.612;23.066;2022-08-04T18:59:59;29.73;;;27.27;;
7985;SDS011;4038;42.612;23.066;2022-08-04T19:02:24;30.92;;;29.02;;
7985;SDS011;4038;42.612;23.066;2022-08-04T19:04:50;28.35;;;26.45;;
7985;SDS011;4038;42.612;23.066;2022-08-04T19:07:15;28.08;;;26.08;;
7985;SDS011;4038;42.612;23.066;2022-08-04T19:09:41;29.65;;;27.42;;
7985;SDS011;4038;42.612;23.066;2022-08-04T19:12:07;35.97;;;33.28;;
7985;SDS011;4038;42.612;23.066;2022-08-04T19:14:33;32.50;;;30.20;;
7985;SDS011;4038;42.612;23.066;2022-08-04T19:16:59;36.08;;;33.50;;
7985;SDS011;4038;42.612;23.066;2022-08-04T19:19:24;38.17;;;35.33;;
7985;SDS011;4038;42.612;23.066;2022-08-04T19:21:50;30.42;;;28.15;;
7985;SDS011;4038;42.612;23.066;2022-08-04T19:24:15;36.90;;;33.55;;
7985;SDS011;4038;42.612;23.066;2022-08-04T19:26:41;29.77;;;27.52;;
7985;SDS011;4038;42.612;23.066;2022-08-04T19:29:07;40.00;;;35.97;;
7985;SDS011;4038;42.612;23.066;2022-08-04T19:31:32;33.38;;;30.45;;
7985;SDS011;4038;42.612;23.066;2022-08-04T19:33:58;28.48;;;25.63;;
7985;SDS011;4038;42.612;23.066;2022-08-04T19:36:24;27.33;;;25.27;;
7985;SDS011;4038;42.612;23.066;2022-08-04T19:38:53;29.65;;;27.45;;
7985;SDS011;4038;42.612;23.066;2022-08-04T19:41:20;27.58;;;25.77;;
7985;SDS011;4038;42.612;23.066;2022-08-04T19:43:45;27.30;;;25.23;;
7985;SDS011;4038;42.612;23.066;2022-08-04T19:46:11;38.20;;;35.03;;
7985;SDS011;4038;42.612;23.066;2022-08-04T19:48:38;28.70;;;26.05;;
7985;SDS011;4038;42.612;23.066;2022-08-04T19:51:04;28.27;;;26.08;;
7985;SDS011;4038;42.612;23.066;2022-08-04T19:53:29;26.73;;;24.67;;
7985;SDS011;4038;42.612;23.066;2022-08-04T19:55:55;26.77;;;24.67;;
7985;SDS011;4038;42.612;23.066;2022-08-04T19:58:20;26.52;;;24.55;;
7985;SDS011;4038;42.612;23.066;2022-08-04T20:00:46;27.42;;;25.13;;
7985;SDS011;4038;42.612;23.066;2022-08-04T20:03:11;26.25;;;24.25;;
7985;SDS011;4038;42.612;23.066;2022-08-04T20:05:43;26.95;;;24.77;;
7985;SDS011;4038;42.612;23.066;2022-08-04T20:08:10;26.95;;;24.80;;
7985;SDS011;4038;42.612;23.066;2022-08-04T20:10:36;27.27;;;24.98;;
7985;SDS011;4038;42.612;23.066;2022-08-04T20:13:02;29.52;;;27.15;;
7985;SDS011;4038;42.612;23.066;2022-08-04T20:15:29;27.13;;;24.70;;
7985;SDS011;4038;42.612;23.066;2022-08-04T20:17:54;29.17;;;25.83;;
7985;SDS011;4038;42.612;23.066;2022-08-04T20:20:19;29.92;;;27.33;;